Terminal Aerodrome Forecast
Issued by NWS

Home | Current Version | Previous Version | Text Only | Print | Product List | Glossary Off
Versions: 1 2 3 4 5 6 7 8 9 10 11 12

000
FTUS43 KGRB 301100
TAFCWA
TAF
KCWA 301122Z 3012/0112 35005KT P6SM SKC
     FM301400 36008G17KT P6SM FEW040 SCT050
     FM302100 03005KT P6SM SKC
     FM010300 00000KT P6SM SKC=

USA.gov is the U.S. government's official web portal to all federal, state and local government web resources and services.